sensor_id;sensor_type;location;lat;lon;timestamp;P1;durP1;ratioP1;P2;durP2;ratioP2
26598;SDS011;14240;51.064;16.612;2023-05-18T00:01:08;19.67;;;7.90;;
26598;SDS011;14240;51.064;16.612;2023-05-18T00:03:34;29.45;;;9.13;;
26598;SDS011;14240;51.064;16.612;2023-05-18T00:06:00;25.98;;;8.48;;
26598;SDS011;14240;51.064;16.612;2023-05-18T00:08:37;18.13;;;8.20;;
26598;SDS011;14240;51.064;16.612;2023-05-18T00:11:03;20.80;;;6.90;;
26598;SDS011;14240;51.064;16.612;2023-05-18T00:13:30;21.35;;;7.15;;
26598;SDS011;14240;51.064;16.612;2023-05-18T00:15:56;20.20;;;7.20;;
26598;SDS011;14240;51.064;16.612;2023-05-18T00:18:22;16.52;;;6.78;;
26598;SDS011;14240;51.064;16.612;2023-05-18T00:20:49;23.95;;;7.30;;
26598;SDS011;14240;51.064;16.612;2023-05-18T00:23:15;15.85;;;7.75;;
26598;SDS011;14240;51.064;16.612;2023-05-18T00:25:41;22.77;;;7.75;;
26598;SDS011;14240;51.064;16.612;2023-05-18T00:28:07;15.73;;;6.75;;
26598;SDS011;14240;51.064;16.612;2023-05-18T00:30:33;21.42;;;8.00;;
26598;SDS011;14240;51.064;16.612;2023-05-18T00:32:58;16.75;;;7.97;;
26598;SDS011;14240;51.064;16.612;2023-05-18T00:35:24;15.05;;;7.95;;
26598;SDS011;14240;51.064;16.612;2023-05-18T00:37:50;19.20;;;7.95;;
26598;SDS011;14240;51.064;16.612;2023-05-18T00:40:15;17.88;;;8.93;;
26598;SDS011;14240;51.064;16.612;2023-05-18T00:42:41;21.80;;;7.68;;
26598;SDS011;14240;51.064;16.612;2023-05-18T00:45:07;28.30;;;8.38;;
26598;SDS011;14240;51.064;16.612;2023-05-18T00:47:33;18.60;;;7.90;;
26598;SDS011;14240;51.064;16.612;2023-05-18T00:49:59;22.45;;;8.70;;
26598;SDS011;14240;51.064;16.612;2023-05-18T00:52:26;21.98;;;8.00;;
26598;SDS011;14240;51.064;16.612;2023-05-18T00:54:52;17.00;;;7.47;;
26598;SDS011;14240;51.064;16.612;2023-05-18T00:57:18;19.70;;;7.38;;
26598;SDS011;14240;51.064;16.612;2023-05-18T00:59:44;13.82;;;6.32;;
26598;SDS011;14240;51.064;16.612;2023-05-18T01:02:11;18.23;;;7.53;;
26598;SDS011;14240;51.064;16.612;2023-05-18T01:04:38;16.15;;;6.95;;
26598;SDS011;14240;51.064;16.612;2023-05-18T01:07:05;18.90;;;7.03;;
26598;SDS011;14240;51.064;16.612;2023-05-18T01:09:31;17.17;;;7.25;;
26598;SDS011;14240;51.064;16.612;2023-05-18T01:12:03;16.75;;;6.13;;
26598;SDS011;14240;51.064;16.612;2023-05-18T01:26:27;25.25;;;6.70;;
26598;SDS011;14240;51.064;16.612;2023-05-18T01:28:56;12.75;;;5.68;;
26598;SDS011;14240;51.064;16.612;2023-05-18T01:31:24;13.57;;;5.95;;
26598;SDS011;14240;51.064;16.612;2023-05-18T01:33:51;19.37;;;6.10;;
26598;SDS011;14240;51.064;16.612;2023-05-18T01:36:16;18.45;;;5.65;;
26598;SDS011;14240;51.064;16.612;2023-05-18T01:38:42;15.48;;;7.07;;
26598;SDS011;14240;51.064;16.612;2023-05-18T01:41:15;12.43;;;5.90;;
26598;SDS011;14240;51.064;16.612;2023-05-18T01:44:11;16.23;;;5.72;;
26598;SDS011;14240;51.064;16.612;2023-05-18T01:49:44;15.63;;;5.28;;
26598;SDS011;14240;51.064;16.612;2023-05-18T01:55:09;9.27;;;5.03;;
26598;SDS011;14240;51.064;16.612;2023-05-18T01:57:35;12.15;;;5.57;;
26598;SDS011;14240;51.064;16.612;2023-05-18T02:02:32;15.00;;;4.70;;
26598;SDS011;14240;51.064;16.612;2023-05-18T02:04:57;11.10;;;5.25;;
26598;SDS011;14240;51.064;16.612;2023-05-18T02:07:23;15.40;;;4.68;;
26598;SDS011;14240;51.064;16.612;2023-05-18T02:09:49;13.63;;;5.47;;
26598;SDS011;14240;51.064;16.612;2023-05-18T02:12:15;17.00;;;5.00;;
26598;SDS011;14240;51.064;16.612;2023-05-18T02:14:40;14.55;;;5.30;;
26598;SDS011;14240;51.064;16.612;2023-05-18T02:17:06;18.95;;;5.75;;
26598;SDS011;14240;51.064;16.612;2023-05-18T02:19:32;12.93;;;4.85;;
26598;SDS011;14240;51.064;16.612;2023-05-18T02:22:05;13.75;;;5.22;;
26598;SDS011;14240;51.064;16.612;2023-05-18T02:24:32;14.13;;;5.28;;
26598;SDS011;14240;51.064;16.612;2023-05-18T02:26:58;16.25;;;5.82;;
26598;SDS011;14240;51.064;16.612;2023-05-18T02:29:23;13.77;;;4.43;;
26598;SDS011;14240;51.064;16.612;2023-05-18T02:31:49;8.30;;;4.30;;
26598;SDS011;14240;51.064;16.612;2023-05-18T02:34:15;19.15;;;5.10;;
26598;SDS011;14240;51.064;16.612;2023-05-18T02:36:41;12.27;;;5.10;;
26598;SDS011;14240;51.064;16.612;2023-05-18T02:39:07;17.08;;;5.38;;
26598;SDS011;14240;51.064;16.612;2023-05-18T02:41:35;10.25;;;4.80;;
26598;SDS011;14240;51.064;16.612;2023-05-18T02:44:04;25.55;;;4.53;;
26598;SDS011;14240;51.064;16.612;2023-05-18T02:46:30;18.55;;;4.53;;
26598;SDS011;14240;51.064;16.612;2023-05-18T02:48:56;16.63;;;4.93;;
26598;SDS011;14240;51.064;16.612;2023-05-18T02:51:22;14.95;;;5.50;;
26598;SDS011;14240;51.064;16.612;2023-05-18T02:53:49;18.80;;;6.13;;
26598;SDS011;14240;51.064;16.612;2023-05-18T02:56:15;17.90;;;6.80;;
26598;SDS011;14240;51.064;16.612;2023-05-18T02:58:44;30.92;;;10.45;;
26598;SDS011;14240;51.064;16.612;2023-05-18T03:01:10;23.65;;;10.02;;
26598;SDS011;14240;51.064;16.612;2023-05-18T03:03:38;35.15;;;9.02;;
26598;SDS011;14240;51.064;16.612;2023-05-18T03:06:22;31.02;;;7.85;;
26598;SDS011;14240;51.064;16.612;2023-05-18T03:08:50;27.50;;;8.90;;
26598;SDS011;14240;51.064;16.612;2023-05-18T03:11:22;22.92;;;6.35;;
26598;SDS011;14240;51.064;16.612;2023-05-18T03:13:48;23.30;;;10.25;;
26598;SDS011;14240;51.064;16.612;2023-05-18T03:16:14;15.75;;;7.25;;
26598;SDS011;14240;51.064;16.612;2023-05-18T03:18:40;16.02;;;6.80;;
26598;SDS011;14240;51.064;16.612;2023-05-18T03:21:06;27.60;;;8.15;;
26598;SDS011;14240;51.064;16.612;2023-05-18T03:23:32;22.33;;;8.27;;
26598;SDS011;14240;51.064;16.612;2023-05-18T03:25:58;27.13;;;8.40;;
26598;SDS011;14240;51.064;16.612;2023-05-18T03:28:28;40.95;;;13.10;;
26598;SDS011;14240;51.064;16.612;2023-05-18T03:30:54;39.17;;;11.52;;
26598;SDS011;14240;51.064;16.612;2023-05-18T03:33:19;22.83;;;8.13;;
26598;SDS011;14240;51.064;16.612;2023-05-18T03:35:45;19.00;;;7.32;;
26598;SDS011;14240;51.064;16.612;2023-05-18T03:38:12;22.35;;;8.77;;
26598;SDS011;14240;51.064;16.612;2023-05-18T03:40:38;14.68;;;6.90;;
26598;SDS011;14240;51.064;16.612;2023-05-18T03:43:04;17.05;;;6.55;;
26598;SDS011;14240;51.064;16.612;2023-05-18T03:45:30;21.80;;;7.75;;
26598;SDS011;14240;51.064;16.612;2023-05-18T03:47:56;16.95;;;6.13;;
26598;SDS011;14240;51.064;16.612;2023-05-18T03:50:22;16.23;;;6.65;;
26598;SDS011;14240;51.064;16.612;2023-05-18T03:52:47;18.58;;;6.80;;
26598;SDS011;14240;51.064;16.612;2023-05-18T03:55:13;16.35;;;6.55;;
26598;SDS011;14240;51.064;16.612;2023-05-18T03:57:39;20.23;;;6.88;;
26598;SDS011;14240;51.064;16.612;2023-05-18T04:00:05;16.65;;;6.00;;
26598;SDS011;14240;51.064;16.612;2023-05-18T04:02:37;24.77;;;7.10;;
26598;SDS011;14240;51.064;16.612;2023-05-18T04:05:04;26.48;;;6.78;;
26598;SDS011;14240;51.064;16.612;2023-05-18T04:07:30;17.67;;;6.68;;
26598;SDS011;14240;51.064;16.612;2023-05-18T04:09:56;19.02;;;7.30;;
26598;SDS011;14240;51.064;16.612;2023-05-18T04:12:22;30.25;;;9.38;;
26598;SDS011;14240;51.064;16.612;2023-05-18T04:14:48;14.40;;;6.63;;
26598;SDS011;14240;51.064;16.612;2023-05-18T04:17:17;27.10;;;7.22;;
26598;SDS011;14240;51.064;16.612;2023-05-18T04:19:46;21.83;;;8.27;;
26598;SDS011;14240;51.064;16.612;2023-05-18T04:22:14;38.33;;;20.05;;
26598;SDS011;14240;51.064;16.612;2023-05-18T04:24:40;27.27;;;11.38;;
26598;SDS011;14240;51.064;16.612;2023-05-18T04:27:06;15.93;;;7.75;;
26598;SDS011;14240;51.064;16.612;2023-05-18T04:29:33;20.50;;;8.02;;
26598;SDS011;14240;51.064;16.612;2023-05-18T04:32:03;16.35;;;5.82;;
26598;SDS011;14240;51.064;16.612;2023-05-18T04:34:32;25.10;;;5.95;;
26598;SDS011;14240;51.064;16.612;2023-05-18T04:37:02;15.43;;;5.88;;
26598;SDS011;14240;51.064;16.612;2023-05-18T04:39:31;13.02;;;5.05;;
26598;SDS011;14240;51.064;16.612;2023-05-18T04:41:58;13.25;;;4.25;;
26598;SDS011;14240;51.064;16.612;2023-05-18T04:44:27;17.15;;;5.68;;
26598;SDS011;14240;51.064;16.612;2023-05-18T04:46:53;12.20;;;5.60;;
26598;SDS011;14240;51.064;16.612;2023-05-18T04:49:20;12.35;;;5.85;;
26598;SDS011;14240;51.064;16.612;2023-05-18T04:51:51;17.50;;;5.18;;
26598;SDS011;14240;51.064;16.612;2023-05-18T04:54:27;12.50;;;4.80;;
26598;SDS011;14240;51.064;16.612;2023-05-18T04:56:56;9.77;;;4.47;;
26598;SDS011;14240;51.064;16.612;2023-05-18T04:59:23;12.02;;;5.88;;
26598;SDS011;14240;51.064;16.612;2023-05-18T05:01:50;7.70;;;4.63;;
26598;SDS011;14240;51.064;16.612;2023-05-18T05:04:17;12.13;;;5.43;;
26598;SDS011;14240;51.064;16.612;2023-05-18T05:06:44;12.75;;;5.10;;
26598;SDS011;14240;51.064;16.612;2023-05-18T05:09:09;15.35;;;5.43;;
26598;SDS011;14240;51.064;16.612;2023-05-18T05:11:38;13.18;;;4.63;;
26598;SDS011;14240;51.064;16.612;2023-05-18T05:14:03;15.32;;;5.18;;
26598;SDS011;14240;51.064;16.612;2023-05-18T05:16:29;14.88;;;5.82;;
26598;SDS011;14240;51.064;16.612;2023-05-18T05:18:55;19.42;;;6.88;;
26598;SDS011;14240;51.064;16.612;2023-05-18T05:21:21;15.35;;;6.05;;
26598;SDS011;14240;51.064;16.612;2023-05-18T05:23:46;17.90;;;6.38;;
26598;SDS011;14240;51.064;16.612;2023-05-18T05:26:12;10.95;;;5.63;;
26598;SDS011;14240;51.064;16.612;2023-05-18T05:28:38;17.23;;;6.00;;
26598;SDS011;14240;51.064;16.612;2023-05-18T05:31:04;13.05;;;5.28;;
26598;SDS011;14240;51.064;16.612;2023-05-18T05:33:30;18.50;;;5.53;;
26598;SDS011;14240;51.064;16.612;2023-05-18T05:35:56;12.95;;;5.38;;
26598;SDS011;14240;51.064;16.612;2023-05-18T05:38:21;13.20;;;5.80;;
26598;SDS011;14240;51.064;16.612;2023-05-18T05:40:47;13.23;;;5.43;;
26598;SDS011;14240;51.064;16.612;2023-05-18T05:43:13;22.52;;;9.57;;
26598;SDS011;14240;51.064;16.612;2023-05-18T05:45:38;16.63;;;5.63;;
26598;SDS011;14240;51.064;16.612;2023-05-18T05:48:04;12.93;;;5.32;;
26598;SDS011;14240;51.064;16.612;2023-05-18T05:50:30;13.82;;;5.60;;
26598;SDS011;14240;51.064;16.612;2023-05-18T05:52:56;17.60;;;6.75;;
26598;SDS011;14240;51.064;16.612;2023-05-18T05:55:22;16.55;;;5.43;;
26598;SDS011;14240;51.064;16.612;2023-05-18T05:57:48;14.25;;;5.78;;
26598;SDS011;14240;51.064;16.612;2023-05-18T06:00:14;14.18;;;5.57;;
26598;SDS011;14240;51.064;16.612;2023-05-18T06:02:40;18.65;;;5.45;;
26598;SDS011;14240;51.064;16.612;2023-05-18T06:05:08;21.92;;;5.97;;
26598;SDS011;14240;51.064;16.612;2023-05-18T06:07:34;15.07;;;4.95;;
26598;SDS011;14240;51.064;16.612;2023-05-18T06:10:00;16.35;;;4.13;;
26598;SDS011;14240;51.064;16.612;2023-05-18T06:12:26;15.55;;;5.13;;
26598;SDS011;14240;51.064;16.612;2023-05-18T06:14:52;10.90;;;3.85;;
26598;SDS011;14240;51.064;16.612;2023-05-18T06:17:25;12.13;;;4.68;;
26598;SDS011;14240;51.064;16.612;2023-05-18T06:19:53;11.55;;;3.78;;
26598;SDS011;14240;51.064;16.612;2023-05-18T06:22:20;7.82;;;3.83;;
26598;SDS011;14240;51.064;16.612;2023-05-18T06:24:47;14.82;;;3.85;;
26598;SDS011;14240;51.064;16.612;2023-05-18T06:27:13;13.50;;;4.13;;
26598;SDS011;14240;51.064;16.612;2023-05-18T06:29:40;17.83;;;3.90;;
26598;SDS011;14240;51.064;16.612;2023-05-18T06:32:08;10.63;;;3.92;;
26598;SDS011;14240;51.064;16.612;2023-05-18T06:34:35;8.25;;;4.28;;
26598;SDS011;14240;51.064;16.612;2023-05-18T06:37:01;12.73;;;3.92;;
26598;SDS011;14240;51.064;16.612;2023-05-18T06:39:27;14.60;;;3.33;;
26598;SDS011;14240;51.064;16.612;2023-05-18T06:41:55;6.72;;;3.40;;
26598;SDS011;14240;51.064;16.612;2023-05-18T06:44:21;11.68;;;3.40;;
26598;SDS011;14240;51.064;16.612;2023-05-18T06:46:52;11.43;;;4.05;;
26598;SDS011;14240;51.064;16.612;2023-05-18T06:49:26;8.10;;;3.13;;
26598;SDS011;14240;51.064;16.612;2023-05-18T06:51:54;19.58;;;3.25;;
26598;SDS011;14240;51.064;16.612;2023-05-18T06:54:21;10.95;;;2.85;;
26598;SDS011;14240;51.064;16.612;2023-05-18T06:56:47;12.43;;;3.58;;
26598;SDS011;14240;51.064;16.612;2023-05-18T06:59:13;6.70;;;2.75;;
26598;SDS011;14240;51.064;16.612;2023-05-18T07:01:38;8.63;;;3.00;;
26598;SDS011;14240;51.064;16.612;2023-05-18T07:04:05;8.53;;;2.87;;
26598;SDS011;14240;51.064;16.612;2023-05-18T07:06:32;11.65;;;3.08;;
26598;SDS011;14240;51.064;16.612;2023-05-18T07:08:57;10.45;;;2.83;;
26598;SDS011;14240;51.064;16.612;2023-05-18T07:11:23;9.27;;;2.65;;
26598;SDS011;14240;51.064;16.612;2023-05-18T07:13:49;10.80;;;3.20;;
26598;SDS011;14240;51.064;16.612;2023-05-18T07:16:15;10.13;;;2.80;;
26598;SDS011;14240;51.064;16.612;2023-05-18T07:18:41;13.52;;;2.80;;
26598;SDS011;14240;51.064;16.612;2023-05-18T07:21:08;7.82;;;2.58;;
26598;SDS011;14240;51.064;16.612;2023-05-18T07:23:34;5.57;;;2.25;;
26598;SDS011;14240;51.064;16.612;2023-05-18T07:26:00;7.50;;;2.40;;
26598;SDS011;14240;51.064;16.612;2023-05-18T07:28:25;9.63;;;2.83;;
26598;SDS011;14240;51.064;16.612;2023-05-18T07:30:51;8.23;;;2.42;;
26598;SDS011;14240;51.064;16.612;2023-05-18T07:33:17;5.00;;;2.38;;
26598;SDS011;14240;51.064;16.612;2023-05-18T07:35:42;12.00;;;2.60;;
26598;SDS011;14240;51.064;16.612;2023-05-18T07:38:09;4.50;;;2.10;;
26598;SDS011;14240;51.064;16.612;2023-05-18T07:40:35;6.22;;;2.40;;
26598;SDS011;14240;51.064;16.612;2023-05-18T07:43:00;4.68;;;1.70;;
26598;SDS011;14240;51.064;16.612;2023-05-18T07:45:26;6.20;;;2.03;;
26598;SDS011;14240;51.064;16.612;2023-05-18T07:47:52;8.10;;;2.42;;
26598;SDS011;14240;51.064;16.612;2023-05-18T07:50:18;9.57;;;2.95;;
26598;SDS011;14240;51.064;16.612;2023-05-18T07:52:43;8.07;;;2.20;;
26598;SDS011;14240;51.064;16.612;2023-05-18T07:55:09;7.72;;;1.95;;
26598;SDS011;14240;51.064;16.612;2023-05-18T07:57:35;13.50;;;3.65;;
26598;SDS011;14240;51.064;16.612;2023-05-18T08:00:02;5.15;;;1.75;;
26598;SDS011;14240;51.064;16.612;2023-05-18T08:02:30;7.50;;;2.05;;
26598;SDS011;14240;51.064;16.612;2023-05-18T08:04:56;3.83;;;1.65;;
26598;SDS011;14240;51.064;16.612;2023-05-18T08:07:22;4.03;;;1.50;;
26598;SDS011;14240;51.064;16.612;2023-05-18T08:09:50;8.73;;;2.22;;
26598;SDS011;14240;51.064;16.612;2023-05-18T08:12:16;7.35;;;1.80;;
26598;SDS011;14240;51.064;16.612;2023-05-18T08:14:41;8.13;;;2.00;;
26598;SDS011;14240;51.064;16.612;2023-05-18T08:17:07;5.00;;;1.90;;
26598;SDS011;14240;51.064;16.612;2023-05-18T08:19:33;8.07;;;1.52;;
26598;SDS011;14240;51.064;16.612;2023-05-18T08:21:59;5.85;;;1.50;;
26598;SDS011;14240;51.064;16.612;2023-05-18T08:24:24;10.68;;;2.05;;
26598;SDS011;14240;51.064;16.612;2023-05-18T08:26:50;7.03;;;1.55;;
26598;SDS011;14240;51.064;16.612;2023-05-18T08:29:17;4.15;;;1.50;;
26598;SDS011;14240;51.064;16.612;2023-05-18T08:31:42;5.80;;;1.83;;
26598;SDS011;14240;51.064;16.612;2023-05-18T08:34:08;6.05;;;1.90;;
26598;SDS011;14240;51.064;16.612;2023-05-18T08:36:34;4.65;;;1.60;;
26598;SDS011;14240;51.064;16.612;2023-05-18T08:39:01;9.57;;;1.65;;
26598;SDS011;14240;51.064;16.612;2023-05-18T08:44:33;6.00;;;1.48;;
26598;SDS011;14240;51.064;16.612;2023-05-18T08:47:09;6.72;;;1.73;;
26598;SDS011;14240;51.064;16.612;2023-05-18T08:49:35;7.53;;;1.80;;
26598;SDS011;14240;51.064;16.612;2023-05-18T08:52:02;12.75;;;2.17;;
26598;SDS011;14240;51.064;16.612;2023-05-18T08:54:29;5.63;;;2.05;;
26598;SDS011;14240;51.064;16.612;2023-05-18T08:56:56;7.47;;;1.92;;
26598;SDS011;14240;51.064;16.612;2023-05-18T08:59:23;6.00;;;2.53;;
26598;SDS011;14240;51.064;16.612;2023-05-18T09:01:51;6.55;;;1.95;;
26598;SDS011;14240;51.064;16.612;2023-05-18T09:04:19;3.90;;;1.77;;
26598;SDS011;14240;51.064;16.612;2023-05-18T09:06:46;10.27;;;2.28;;
26598;SDS011;14240;51.064;16.612;2023-05-18T09:09:13;7.70;;;1.95;;
26598;SDS011;14240;51.064;16.612;2023-05-18T09:11:40;6.65;;;2.90;;
26598;SDS011;14240;51.064;16.612;2023-05-18T09:14:06;5.60;;;1.80;;
26598;SDS011;14240;51.064;16.612;2023-05-18T09:16:32;9.00;;;1.92;;
26598;SDS011;14240;51.064;16.612;2023-05-18T09:18:58;9.40;;;2.08;;
26598;SDS011;14240;51.064;16.612;2023-05-18T09:21:24;7.07;;;1.85;;
26598;SDS011;14240;51.064;16.612;2023-05-18T09:23:50;8.98;;;1.92;;
26598;SDS011;14240;51.064;16.612;2023-05-18T09:26:17;6.50;;;1.85;;
26598;SDS011;14240;51.064;16.612;2023-05-18T09:28:44;6.30;;;2.22;;
26598;SDS011;14240;51.064;16.612;2023-05-18T09:31:15;6.10;;;2.10;;
26598;SDS011;14240;51.064;16.612;2023-05-18T09:33:42;13.50;;;2.60;;
26598;SDS011;14240;51.064;16.612;2023-05-18T09:36:09;8.27;;;2.85;;
26598;SDS011;14240;51.064;16.612;2023-05-18T09:38:40;4.75;;;1.70;;
26598;SDS011;14240;51.064;16.612;2023-05-18T09:41:09;6.60;;;2.10;;
26598;SDS011;14240;51.064;16.612;2023-05-18T09:43:39;6.72;;;2.00;;
26598;SDS011;14240;51.064;16.612;2023-05-18T09:46:06;5.13;;;2.20;;
26598;SDS011;14240;51.064;16.612;2023-05-18T09:48:34;4.45;;;1.83;;
26598;SDS011;14240;51.064;16.612;2023-05-18T09:51:20;7.55;;;1.67;;
26598;SDS011;14240;51.064;16.612;2023-05-18T09:53:55;6.28;;;1.85;;
26598;SDS011;14240;51.064;16.612;2023-05-18T09:56:23;8.07;;;1.60;;
26598;SDS011;14240;51.064;16.612;2023-05-18T09:58:49;6.57;;;1.73;;
26598;SDS011;14240;51.064;16.612;2023-05-18T10:01:15;4.97;;;1.40;;
26598;SDS011;14240;51.064;16.612;2023-05-18T10:03:41;2.55;;;1.50;;
26598;SDS011;14240;51.064;16.612;2023-05-18T10:06:09;3.20;;;1.10;;
26598;SDS011;14240;51.064;16.612;2023-05-18T10:08:37;3.78;;;1.45;;
26598;SDS011;14240;51.064;16.612;2023-05-18T10:11:03;3.55;;;1.50;;
26598;SDS011;14240;51.064;16.612;2023-05-18T10:13:30;2.38;;;1.60;;
26598;SDS011;14240;51.064;16.612;2023-05-18T10:16:00;2.58;;;0.90;;
26598;SDS011;14240;51.064;16.612;2023-05-18T10:18:32;3.33;;;1.73;;
26598;SDS011;14240;51.064;16.612;2023-05-18T10:21:00;6.68;;;1.60;;
26598;SDS011;14240;51.064;16.612;2023-05-18T10:23:29;3.30;;;1.40;;
26598;SDS011;14240;51.064;16.612;2023-05-18T10:25:57;8.23;;;1.90;;
26598;SDS011;14240;51.064;16.612;2023-05-18T10:28:27;3.95;;;1.73;;
26598;SDS011;14240;51.064;16.612;2023-05-18T10:30:57;2.67;;;1.73;;
26598;SDS011;14240;51.064;16.612;2023-05-18T10:33:24;4.22;;;1.63;;
26598;SDS011;14240;51.064;16.612;2023-05-18T10:35:51;2.88;;;1.83;;
26598;SDS011;14240;51.064;16.612;2023-05-18T10:38:18;4.05;;;1.40;;
26598;SDS011;14240;51.064;16.612;2023-05-18T10:40:48;8.73;;;2.25;;
26598;SDS011;14240;51.064;16.612;2023-05-18T10:43:19;3.10;;;1.60;;
26598;SDS011;14240;51.064;16.612;2023-05-18T10:45:50;3.50;;;1.55;;
26598;SDS011;14240;51.064;16.612;2023-05-18T10:48:21;2.78;;;1.70;;
26598;SDS011;14240;51.064;16.612;2023-05-18T10:50:48;3.53;;;1.77;;
26598;SDS011;14240;51.064;16.612;2023-05-18T10:53:25;4.75;;;1.80;;
26598;SDS011;14240;51.064;16.612;2023-05-18T10:55:53;4.00;;;1.40;;
26598;SDS011;14240;51.064;16.612;2023-05-18T10:58:20;4.13;;;1.70;;
26598;SDS011;14240;51.064;16.612;2023-05-18T11:00:49;4.20;;;1.65;;
26598;SDS011;14240;51.064;16.612;2023-05-18T11:03:23;2.63;;;2.00;;
26598;SDS011;14240;51.064;16.612;2023-05-18T11:06:10;5.72;;;2.45;;
26598;SDS011;14240;51.064;16.612;2023-05-18T11:08:48;2.95;;;1.73;;
26598;SDS011;14240;51.064;16.612;2023-05-18T11:11:14;3.53;;;1.80;;
26598;SDS011;14240;51.064;16.612;2023-05-18T11:13:45;5.75;;;2.00;;
26598;SDS011;14240;51.064;16.612;2023-05-18T11:16:13;6.63;;;2.00;;
26598;SDS011;14240;51.064;16.612;2023-05-18T11:18:44;6.35;;;1.98;;
26598;SDS011;14240;51.064;16.612;2023-05-18T11:26:54;3.20;;;1.90;;
26598;SDS011;14240;51.064;16.612;2023-05-18T11:29:21;9.80;;;2.63;;
26598;SDS011;14240;51.064;16.612;2023-05-18T11:31:52;7.32;;;2.10;;
26598;SDS011;14240;51.064;16.612;2023-05-18T11:37:14;7.10;;;2.97;;
26598;SDS011;14240;51.064;16.612;2023-05-18T11:40:01;5.53;;;1.95;;
26598;SDS011;14240;51.064;16.612;2023-05-18T11:42:30;8.88;;;2.33;;
26598;SDS011;14240;51.064;16.612;2023-05-18T11:45:02;4.47;;;1.80;;
26598;SDS011;14240;51.064;16.612;2023-05-18T11:47:31;4.50;;;1.85;;
26598;SDS011;14240;51.064;16.612;2023-05-18T11:49:57;4.03;;;1.77;;
26598;SDS011;14240;51.064;16.612;2023-05-18T11:52:24;3.72;;;1.80;;
26598;SDS011;14240;51.064;16.612;2023-05-18T11:54:51;6.05;;;2.28;;
26598;SDS011;14240;51.064;16.612;2023-05-18T12:00:10;6.13;;;1.95;;
26598;SDS011;14240;51.064;16.612;2023-05-18T12:02:37;2.15;;;1.73;;
26598;SDS011;14240;51.064;16.612;2023-05-18T12:05:07;3.20;;;1.80;;
26598;SDS011;14240;51.064;16.612;2023-05-18T12:07:34;2.70;;;1.77;;
26598;SDS011;14240;51.064;16.612;2023-05-18T12:10:05;6.45;;;1.63;;
26598;SDS011;14240;51.064;16.612;2023-05-18T12:12:35;3.10;;;2.00;;
26598;SDS011;14240;51.064;16.612;2023-05-18T12:15:02;3.60;;;2.10;;
26598;SDS011;14240;51.064;16.612;2023-05-18T12:20:09;4.22;;;1.98;;
26598;SDS011;14240;51.064;16.612;2023-05-18T12:22:37;3.20;;;1.90;;
26598;SDS011;14240;51.064;16.612;2023-05-18T12:25:04;3.70;;;1.95;;
26598;SDS011;14240;51.064;16.612;2023-05-18T12:27:31;3.13;;;2.00;;
26598;SDS011;14240;51.064;16.612;2023-05-18T12:30:08;3.50;;;2.00;;
26598;SDS011;14240;51.064;16.612;2023-05-18T12:32:47;5.45;;;2.03;;
26598;SDS011;14240;51.064;16.612;2023-05-18T12:35:13;3.30;;;1.80;;
26598;SDS011;14240;51.064;16.612;2023-05-18T12:37:42;3.55;;;1.60;;
26598;SDS011;14240;51.064;16.612;2023-05-18T12:40:10;6.88;;;2.25;;
26598;SDS011;14240;51.064;16.612;2023-05-18T12:42:37;5.53;;;1.90;;
26598;SDS011;14240;51.064;16.612;2023-05-18T12:45:03;8.27;;;2.20;;
26598;SDS011;14240;51.064;16.612;2023-05-18T12:47:31;6.78;;;1.65;;
26598;SDS011;14240;51.064;16.612;2023-05-18T12:49:59;4.63;;;2.30;;
26598;SDS011;14240;51.064;16.612;2023-05-18T12:52:26;3.25;;;1.30;;
26598;SDS011;14240;51.064;16.612;2023-05-18T12:54:55;3.70;;;1.80;;
26598;SDS011;14240;51.064;16.612;2023-05-18T12:57:27;5.63;;;1.60;;
26598;SDS011;14240;51.064;16.612;2023-05-18T12:59:55;3.92;;;1.83;;
26598;SDS011;14240;51.064;16.612;2023-05-18T13:02:32;3.33;;;1.63;;
26598;SDS011;14240;51.064;16.612;2023-05-18T13:05:02;6.88;;;2.00;;
26598;SDS011;14240;51.064;16.612;2023-05-18T13:07:40;2.08;;;1.40;;
26598;SDS011;14240;51.064;16.612;2023-05-18T13:10:11;3.45;;;1.80;;
26598;SDS011;14240;51.064;16.612;2023-05-18T13:12:45;6.20;;;2.15;;
26598;SDS011;14240;51.064;16.612;2023-05-18T13:17:54;6.55;;;1.80;;
26598;SDS011;14240;51.064;16.612;2023-05-18T13:23:09;4.40;;;1.70;;
26598;SDS011;14240;51.064;16.612;2023-05-18T13:25:36;3.00;;;1.77;;
26598;SDS011;14240;51.064;16.612;2023-05-18T13:28:02;3.20;;;1.35;;
26598;SDS011;14240;51.064;16.612;2023-05-18T13:30:28;2.97;;;1.67;;
26598;SDS011;14240;51.064;16.612;2023-05-18T13:32:55;3.22;;;1.70;;
26598;SDS011;14240;51.064;16.612;2023-05-18T13:35:21;6.20;;;1.85;;
26598;SDS011;14240;51.064;16.612;2023-05-18T13:37:47;3.05;;;2.10;;
26598;SDS011;14240;51.064;16.612;2023-05-18T13:40:14;5.00;;;1.67;;
26598;SDS011;14240;51.064;16.612;2023-05-18T13:42:40;7.57;;;1.83;;
26598;SDS011;14240;51.064;16.612;2023-05-18T13:45:09;3.17;;;1.60;;
26598;SDS011;14240;51.064;16.612;2023-05-18T13:47:35;4.03;;;1.47;;
26598;SDS011;14240;51.064;16.612;2023-05-18T13:50:01;3.95;;;1.80;;
26598;SDS011;14240;51.064;16.612;2023-05-18T13:52:27;3.72;;;1.80;;
26598;SDS011;14240;51.064;16.612;2023-05-18T13:54:53;3.75;;;1.70;;
26598;SDS011;14240;51.064;16.612;2023-05-18T13:57:19;4.72;;;2.05;;
26598;SDS011;14240;51.064;16.612;2023-05-18T13:59:47;3.40;;;1.73;;
26598;SDS011;14240;51.064;16.612;2023-05-18T14:02:12;4.47;;;2.13;;
26598;SDS011;14240;51.064;16.612;2023-05-18T14:04:38;6.15;;;2.03;;
26598;SDS011;14240;51.064;16.612;2023-05-18T14:07:04;3.42;;;1.58;;
26598;SDS011;14240;51.064;16.612;2023-05-18T14:09:29;4.75;;;1.85;;
26598;SDS011;14240;51.064;16.612;2023-05-18T14:11:55;5.93;;;1.60;;
26598;SDS011;14240;51.064;16.612;2023-05-18T14:14:22;4.75;;;1.80;;
26598;SDS011;14240;51.064;16.612;2023-05-18T14:16:48;3.72;;;1.70;;
26598;SDS011;14240;51.064;16.612;2023-05-18T14:19:13;2.60;;;1.70;;
26598;SDS011;14240;51.064;16.612;2023-05-18T14:21:39;5.40;;;1.65;;
26598;SDS011;14240;51.064;16.612;2023-05-18T14:24:05;3.05;;;1.55;;
26598;SDS011;14240;51.064;16.612;2023-05-18T14:26:32;3.92;;;1.92;;
26598;SDS011;14240;51.064;16.612;2023-05-18T14:28:58;3.78;;;1.50;;
26598;SDS011;14240;51.064;16.612;2023-05-18T14:31:24;3.75;;;1.63;;
26598;SDS011;14240;51.064;16.612;2023-05-18T14:33:50;2.28;;;1.55;;
26598;SDS011;14240;51.064;16.612;2023-05-18T14:36:15;2.03;;;1.63;;
26598;SDS011;14240;51.064;16.612;2023-05-18T14:38:41;3.08;;;1.52;;
26598;SDS011;14240;51.064;16.612;2023-05-18T14:41:07;3.75;;;1.50;;
26598;SDS011;14240;51.064;16.612;2023-05-18T14:43:33;2.67;;;1.85;;
26598;SDS011;14240;51.064;16.612;2023-05-18T14:45:59;5.25;;;1.30;;
26598;SDS011;14240;51.064;16.612;2023-05-18T14:48:25;2.53;;;1.70;;
26598;SDS011;14240;51.064;16.612;2023-05-18T14:50:51;4.38;;;1.70;;
26598;SDS011;14240;51.064;16.612;2023-05-18T14:53:16;2.42;;;1.33;;
26598;SDS011;14240;51.064;16.612;2023-05-18T14:55:42;3.20;;;1.58;;
26598;SDS011;14240;51.064;16.612;2023-05-18T14:58:08;3.67;;;1.50;;
26598;SDS011;14240;51.064;16.612;2023-05-18T15:00:38;4.70;;;1.60;;
26598;SDS011;14240;51.064;16.612;2023-05-18T15:03:07;1.77;;;1.40;;
26598;SDS011;14240;51.064;16.612;2023-05-18T15:05:40;4.13;;;1.50;;
26598;SDS011;14240;51.064;16.612;2023-05-18T15:08:08;3.63;;;1.38;;
26598;SDS011;14240;51.064;16.612;2023-05-18T15:10:33;3.67;;;1.40;;
26598;SDS011;14240;51.064;16.612;2023-05-18T15:12:59;1.92;;;1.40;;